Flight Track Log - Related Links

Times and Time Zones

All times are in EDT time to prevent confusion due to time zone crossing. See the N57346 flight status page for this flight to view local times or setup timezone preferences in your user account.

Time Position Orientation Groundspeed Altitude Reporting Facility
EDT Latitude Longitude Course Direction KTS MPH feet Rate Location/Type
Mon 09:06:33 AM 41.3506 -82.0186 97° East 135 155 7,400  Level Cleveland Center
Mon 09:07:33 AM 41.3469 -81.9689 96° East 136 157 7,400  Level Cleveland Center
Mon 09:08:34 AM 41.3436 -81.9161 95° East 137 158 7,400  Level Cleveland Center
Mon 09:09:34 AM 41.3400 -81.8692 96° East 139 160 7,400  Level Cleveland Center
Mon 09:10:35 AM 41.3322 -81.8136 101° East 140 161 7,400  Level Cleveland Center
Mon 09:11:00 AM 41.3475 -81.7531 97° East  Level Estimated
Mon 09:11:36 AM 41.3286 -81.7639 96° East 138 159 7,400  Level Cleveland Center
Mon 09:12:36 AM 41.3228 -81.7111 98° East 139 160 7,400  Level Cleveland Center
Mon 09:13:37 AM 41.3211 -81.6642 93° East 136 157 7,400  Level Cleveland Center
Mon 09:14:44 AM 41.3114 -81.6031 102° East 142 163 7,400  Level Cleveland Center
Mon 09:15:44 AM 41.3075 -81.5506 96° East 141 162 7,400  Level Cleveland Center
Mon 09:16:51 AM 41.3039 -81.4981 95° East 138 159 7,400  Level Cleveland Center
Mon 09:17:51 AM 41.2958 -81.4456 102° East 141 162 7,400  Level Cleveland Center
Mon 09:18:52 AM 41.2922 -81.3928 95° East 141 162 7,400  Level Cleveland Center
Mon 09:19:47 AM 41.2861 -81.3458 100° East 139 160 7,400  Level Cleveland Center
Mon 09:20:53 AM 41.2803 -81.2878 98° East 140 161 7,400  Level Cleveland Center
Mon 09:21:48 AM 41.2806 -81.2408 90° East 155 178 7,400  Level Cleveland Center
Mon 09:22:55 AM 41.2725 -81.1828 100° East 139 160 7,400  Level Cleveland Center
Mon 09:24:00 AM 41.2691 -81.1340 95° East  Level FlightAware Approximate
Mon 09:31:00 AM 41.2385 -80.8199 97° East  Level FlightAware Approximate
Mon 09:32:00 AM 41.2345 -80.7750 97° East  Level FlightAware Approximate
Mon 09:33:00 AM 41.2305 -80.7301 97° East  Level FlightAware Approximate
Mon 09:34:00 AM 41.2265 -80.6852 97° East  Level FlightAware Approximate
Mon 09:35:00 AM 41.2224 -80.6403 97° East  Level FlightAware Approximate
Mon 09:36:00 AM 41.2184 -80.5954 97° East  Level FlightAware Approximate
Mon 09:37:00 AM 41.2143 -80.5506 97° East  Level FlightAware Approximate
Mon 09:38:00 AM 41.2102 -80.5057 97° East  Level FlightAware Approximate
Mon 09:39:00 AM 41.2061 -80.4608 97° East  Level FlightAware Approximate
Mon 09:40:00 AM 41.2019 -80.4160 97° East  Level FlightAware Approximate
Mon 09:41:00 AM 41.1978 -80.3711 97° East  Level FlightAware Approximate
Mon 09:42:00 AM 41.1936 -80.3263 97° East  Level FlightAware Approximate
Mon 09:43:00 AM 41.1894 -80.2814 97° East  Level FlightAware Approximate
Mon 09:44:00 AM 41.1852 -80.2366 97° East  Level FlightAware Approximate
Mon 09:44:03 AM 41.1606 -80.1142 100° East 140 161 7,400  Level Cleveland Center
Mon 09:45:00 AM 41.1801 -80.1919 100° East  Level FlightAware Approximate
Mon 09:45:03 AM 41.1542 -80.0619 99° East 140 161 7,400  Level Cleveland Center
Mon 09:46:00 AM 41.1742 -80.1474 100° East  Level FlightAware Approximate
Mon 09:46:03 AM 41.1497 -80.0178 98° East 140 161 7,400  Level Cleveland Center
Mon 09:47:00 AM 41.1684 -80.1030 100° East  Level FlightAware Approximate
Mon 09:47:03 AM 41.1433 -79.9628 99° East 134 154 7,400  Level Cleveland Center
Mon 09:48:00 AM 41.1625 -80.0585 100° East  Level FlightAware Approximate
Mon 09:48:03 AM 41.1367 -79.9106 100° East 145 167 7,400  Level Cleveland Center
Mon 09:49:03 AM 41.1322 -79.8608 97° East 150 173 7,400  Level Cleveland Center
Mon 09:50:03 AM 41.1278 -79.8167 98° East 137 158 7,400  Level Cleveland Center
Mon 09:51:03 AM 41.1211 -79.7672 100° East 137 158 7,400  Level Cleveland Center
Mon 09:52:03 AM 41.1167 -79.7150 96° East 137 158 7,400  Level Cleveland Center
Mon 09:53:03 AM 41.1100 -79.6628 100° East 137 158 7,400  Level Cleveland Center
Mon 09:54:03 AM 41.1033 -79.6131 100° East 142 163 7,400  Level Cleveland Center
Mon 09:55:03 AM 41.0986 -79.5608 97° East 142 163 7,400  Level Cleveland Center
Mon 09:56:03 AM 41.0919 -79.5114 100° East 142 163 7,400  Level Cleveland Center
Mon 09:57:03 AM 41.0872 -79.4592 97° East 142 163 7,400  Level Cleveland Center
Mon 09:58:03 AM 41.0806 -79.4097 100° East 142 163 7,400  Level Cleveland Center
Mon 09:59:03 AM 41.0739 -79.3603 100° East 142 163 7,400  Level Cleveland Center
Mon 10:00:03 AM 41.0692 -79.3108 97° East 142 163 7,400  Level Cleveland Center
Mon 10:01:03 AM 41.0622 -79.2586 100° East 142 163 7,400  Level Cleveland Center
Mon 10:02:03 AM 41.0575 -79.2092 97° East 142 163 7,400  Level Cleveland Center
Mon 10:03:03 AM 41.0528 -79.1597 97° East 142 163 7,400  Level Cleveland Center
Mon 10:04:03 AM 41.0458 -79.1075 100° East 142 163 7,400  Level Cleveland Center
Mon 10:05:03 AM 41.0389 -79.0581 101° East 142 163 7,400  Level Cleveland Center
Mon 10:06:03 AM 41.0339 -79.0058 97° East 142 163 7,400  Level Cleveland Center
Mon 10:07:03 AM 41.0269 -78.9564 101° East 142 163 7,400  Level Cleveland Center
Mon 10:08:03 AM 41.0200 -78.9044 100° East 142 163 7,400 -250 Level Cleveland Center
Mon 10:09:03 AM 41.0131 -78.8494 99° East 142 163 6,900 -500 Descending Cleveland Center
Mon 10:10:03 AM 41.0058 -78.7947 100° East 142 163 6,400 -450 Descending Cleveland Center
Mon 10:11:03 AM 40.9986 -78.7397 100° East 147 169 6,000 -462 Descending Cleveland Center
Mon 10:13:18 AM 40.9831 -78.6111 99° East 155 178 4,900 -495 Descending New York Center
Mon 10:14:17 AM 40.9767 -78.5528 98° East 150 173 4,400 -403 Descending New York Center
Mon 10:15:17 AM 40.9697 -78.4997 100° East 150 173 4,100 -295 Descending New York Center
Mon 10:16:19 AM 40.9644 -78.4497 98° East 150 173 3,800 -295 Descending New York Center
Mon 10:17:19 AM 40.9594 -78.3994 97° East 150 173 3,500 -200 Descending New York Center
Mon 10:18:19 AM 40.9522 -78.3492 101° East 150 173 3,400 -51 Descending New York Center
Mon 10:19:17 AM 40.9469 -78.3019 98° East 145 167 3,400  Level New York Center
Mon 10:20:17 AM 40.9394 -78.2572 103° East 135 155 3,400  Level New York Center
Mon 10:21:17 AM 40.9339 -78.2097 99° East 129 148 3,400  Level New York Center
Mon 10:22:18 AM 40.9286 -78.1625 98° East 129 148 3,400  Level New York Center
Mon 10:23:20 AM 40.9211 -78.1150 102° East 129 148 3,400  Level New York Center
Mon 10:24:17 AM 40.9158 -78.0650 98° East 129 148 3,400  Level New York Center

Login

Don't have an account? Register now (free) for customized features, flight alerts, and more!